Latest Weather Observations for Portland Airport

IDV60801

Issued at 8:05 am EST Thursday 2 October 2014 (issued every 30 minutes, with the page automatically refreshed every 10 minutes)

About weather observations | Map of weather stations | Latest weather observations for VIC | Other Formats
Station Details ID: 090171 Name: CASHMORE AIRPORT Lat: -38.31 Lon: 141.47 Height: 80.9 m
Data from the previous 72 hours. | See also: Recent months at Portland Airport
Date/Time
EST
Temp
°C
App
Temp
°C
Dew
Point
Rel
Hum
%
Delta-T
°C
Wind Press
QNH
hPa
Press
MSL
hPa
Rain
since 9 am
mm
Dir
 
Spd
km/h
Gust
km/h
Spd
kts
Gust
kts
02/08:00am 12.1 7.5 8.2 77 1.9 WSW 22 32 12 17 1025.5 1025.5 -
02/07:30am 12.0 7.7 7.9 76 2.0 WSW 20 30 11 16 1025.2 1025.2 -
02/07:00am 11.8 7.5 7.7 76 2.0 WSW 20 28 11 15 1025.2 1025.2 -
02/06:30am 11.7 7.4 7.8 77 1.9 W 20 26 11 14 1024.7 1024.8 -
02/06:00am 11.7 7.3 7.2 74 2.2 WSW 20 33 11 18 1024.3 1024.4 -
02/05:30am 11.9 7.3 8.0 77 1.9 WSW 22 35 12 19 1024.2 1024.3 -
02/05:00am 12.0 7.4 8.1 77 1.9 WSW 22 32 12 17 1024.0 1024.1 -
02/04:30am 11.9 7.8 8.6 80 1.6 WSW 20 32 11 17 1024.1 1024.2 -
02/04:00am 11.7 6.4 8.4 80 1.6 W 26 33 14 18 1024.0 1024.1 -
02/03:30am 11.4 6.7 7.7 78 1.8 WSW 22 32 12 17 1024.0 1024.1 -
02/03:00am 11.0 5.8 8.9 87 1.0 W 26 35 14 19 1024.3 1024.4 0.2
02/02:30am 11.1 6.5 8.3 83 1.4 WSW 22 35 12 19 1024.6 1024.7 -
02/02:00am 10.7 7.4 9.6 93 0.6 W 17 22 9 12 1024.9 1025.0 -
02/01:30am 10.5 6.6 9.6 94 0.5 W 20 30 11 16 1025.3 1025.3 -
02/01:29am 10.5 6.6 9.6 94 0.5 W 20 30 11 16 1025.3 1025.3 -
02/01:05am 10.6 5.2 9.4 92 0.6 WSW 28 44 15 24 1025.5 1025.5 -
02/01:00am 11.0 6.3 9.4 90 0.8 WSW 24 44 13 24 1025.5 1025.5 -
02/12:30am 11.3 7.3 8.9 85 1.2 W 20 28 11 15 1025.5 1025.5 -
02/12:00am 11.6 7.2 9.0 84 1.3 W 22 32 12 17 1025.7 1025.7 -
 
Date/Time
EST
Temp
°C
App
Temp
°C
Dew
Point
Rel
Hum
%
Delta-T
°C
Wind Press
QNH
hPa
Press
MSL
hPa
Rain
since 9 am
mm
Dir
 
Spd
km/h
Gust
km/h
Spd
kts
Gust
kts
01/11:30pm 11.2 6.5 7.7 79 1.7 W 22 28 12 15 1025.7 1025.7 -
01/11:00pm 11.4 6.8 8.1 80 1.6 W 22 28 12 15 1025.9 1025.9 -
01/10:30pm 11.1 7.0 8.5 84 1.3 W 20 30 11 16 1026.0 1026.0 -
01/10:00pm 11.5 6.6 8.5 82 1.5 W 24 32 13 17 1026.1 1026.1 -
01/09:30pm 11.2 7.2 8.1 81 1.5 W 19 26 10 14 1026.3 1026.3 -
01/09:00pm 11.0 6.6 7.3 78 1.8 W 20 30 11 16 1026.3 1026.3 0.0
01/08:30pm 11.0 6.7 7.7 80 1.6 W 20 28 11 15 1026.3 1026.3 -
01/08:00pm 11.6 6.7 6.9 73 2.2 W 22 32 12 17 1026.0 1026.0 -
01/07:30pm 11.5 7.0 6.8 73 2.2 W 20 26 11 14 1026.0 1026.0 -
01/07:00pm 11.0 7.0 6.7 75 2.0 W 17 24 9 13 1026.0 1026.0 -
01/06:30pm 11.4 6.5 6.7 73 2.2 W 22 32 12 17 1026.0 1026.0 -
01/06:00pm 11.8 7.2 6.7 71 2.4 W 20 28 11 15 1025.9 1025.9 -
01/05:30pm 12.0 8.1 7.1 72 2.4 W 17 22 9 12 1025.8 1025.8 -
01/05:00pm 12.9 8.0 7.1 68 2.8 WSW 22 30 12 16 1025.6 1025.6 -
01/04:30pm 12.4 6.7 6.9 69 2.6 W 26 33 14 18 1025.5 1025.5 -
01/04:00pm 12.2 7.3 6.7 69 2.6 W 22 30 12 16 1025.6 1025.6 -
01/03:30pm 13.3 7.8 5.9 61 3.5 W 24 37 13 20 1025.6 1025.6 -
01/03:00pm 13.5 8.2 6.8 64 3.2 WSW 24 35 13 19 1025.7 1025.7 0.0
01/02:30pm 13.1 7.3 6.2 63 3.3 WSW 26 39 14 21 1025.7 1025.7 -
01/02:00pm 13.6 7.7 7.6 67 2.9 WSW 28 37 15 20 1025.7 1025.7 -
01/01:30pm 11.8 6.1 6.5 70 2.5 WSW 26 37 14 20 1026.2 1026.2 -
01/01:00pm 13.5 8.2 6.6 63 3.3 W 24 32 13 17 1026.1 1026.1 -
01/12:30pm 13.3 8.3 6.6 64 3.2 WSW 22 33 12 18 1025.9 1025.9 -
01/12:00pm 12.6 6.6 5.3 61 3.4 WSW 26 35 14 19 1025.8 1025.8 -
01/11:30am 13.1 8.0 5.8 61 3.5 WSW 22 35 12 19 1025.8 1025.8 0.0
01/11:00am 12.4 7.0 4.6 59 3.6 SW 22 33 12 18 1025.9 1025.9 0.0
01/10:30am 11.8 6.2 5.4 65 3.0 WSW 24 35 13 19 1025.9 1025.9 0.0
01/10:00am 12.6 7.5 5.8 63 3.2 WSW 22 33 12 18 1025.7 1025.7 0.0
01/09:44am 11.5 5.2 5.6 67 2.7 WSW 28 46 15 25 1025.5 1025.5 0.0
01/09:30am 11.9 6.0 3.9 58 3.6 WSW 24 35 13 19 1025.2 1025.2 0.0
01/09:00am 11.6 5.4 4.3 61 3.3 SW 26 37 14 20 1024.7 1024.8 11.0
01/08:30am 10.7 5.8 5.3 69 2.5 SW 20 28 11 15 1024.2 1024.3 -
01/08:00am 10.0 4.5 5.8 75 1.9 WSW 24 35 13 19 1023.6 1023.7 -
01/07:30am 10.4 4.8 3.7 63 3.0 WSW 22 33 12 18 1023.2 1023.3 -
01/07:00am 9.0 4.0 3.6 69 2.3 WSW 19 22 10 12 1022.8 1022.9 -
01/06:30am 8.7 3.6 3.3 69 2.3 WSW 19 26 10 14 1022.2 1022.3 -
01/06:00am 8.6 4.2 5.0 78 1.6 SW 17 26 9 14 1021.7 1021.8 -
01/05:30am 8.1 3.3 4.7 79 1.5 WSW 19 24 10 13 1021.3 1021.4 -
01/05:00am 8.9 3.9 4.5 74 1.9 WSW 20 33 11 18 1020.8 1020.9 -
01/04:30am 8.6 3.6 3.8 72 2.1 SW 19 28 10 15 1020.6 1020.7 -
01/04:00am 8.7 2.9 4.5 75 1.9 SW 24 41 13 22 1020.4 1020.5 -
01/03:30am 8.2 4.1 4.4 77 1.7 SSW 15 24 8 13 1020.1 1020.2 -
01/03:00am 9.3 4.3 3.5 67 2.5 SW 19 28 10 15 1019.8 1019.9 0.4
01/02:30am 9.4 4.4 3.8 68 2.5 SW 19 28 10 15 1019.5 1019.6 -
01/02:00am 9.1 3.4 3.1 66 2.6 WSW 22 32 12 17 1019.4 1019.5 -
01/01:30am 9.1 2.5 2.0 61 3.0 WSW 26 39 14 21 1019.1 1019.2 -
01/01:00am 9.0 2.6 3.4 68 2.4 WSW 26 35 14 19 1018.8 1018.9 -
01/12:37am 8.8 2.1 3.8 71 2.2 SW 28 46 15 25 1018.7 1018.8 -
01/12:30am 9.6 3.1 2.7 62 3.0 SW 26 41 14 22 1018.4 1018.5 -
01/12:00am 8.8 2.9 3.8 71 2.2 WSW 24 35 13 19 1018.0 1018.1 -
 
Date/Time
EST
Temp
°C
App
Temp
°C
Dew
Point
Rel
Hum
%
Delta-T
°C
Wind Press
QNH
hPa
Press
MSL
hPa
Rain
since 9 am
mm
Dir
 
Spd
km/h
Gust
km/h
Spd
kts
Gust
kts
30/11:30pm 9.4 1.8 2.9 64 2.8 WSW 32 44 17 24 1017.6 1017.7 -
30/11:00pm 9.4 1.9 3.2 65 2.7 WSW 32 43 17 23 1017.3 1017.3 -
30/10:44pm 9.1 2.2 2.7 64 2.7 WSW 28 48 15 26 1017.1 1017.1 -
30/10:30pm 8.9 1.5 3.9 71 2.2 WSW 32 48 17 26 1017.1 1017.1 -
30/10:00pm 8.6 1.9 3.8 72 2.1 WSW 28 39 15 21 1016.5 1016.5 -
30/09:46pm 8.2 1.6 4.2 76 1.8 WSW 28 46 15 25 1016.4 1016.4 -
30/09:30pm 8.5 0.7 4.7 77 1.7 WSW 35 56 19 30 1016.1 1016.1 -
30/09:29pm 8.5 0.6 4.3 75 1.8 WSW 35 56 19 30 1016.1 1016.1 -
30/09:01pm 9.9 1.1 3.4 64 2.8 WSW 39 70 21 38 1015.2 1015.2 -
30/09:00pm 9.9 1.3 2.5 60 3.2 WSW 37 54 20 29 1015.2 1015.2 0.4
30/08:34pm 9.2 0.7 3.0 65 2.7 WSW 37 56 20 30 1014.9 1014.9 -
30/08:30pm 9.3 0.4 2.9 64 2.7 WSW 39 56 21 30 1014.8 1014.8 -
30/08:06pm 9.0 1.0 5.6 79 1.5 WSW 37 56 20 30 1014.4 1014.4 -
30/08:00pm 9.6 1.5 5.4 75 1.9 W 37 54 20 29 1014.3 1014.3 -
30/07:39pm 10.2 1.7 3.3 62 3.0 W 37 57 20 31 1013.4 1013.4 -
30/07:30pm 10.0 1.1 3.1 62 3.0 W 39 52 21 28 1013.3 1013.3 -
30/07:08pm 10.1 1.3 3.6 64 2.9 W 39 57 21 31 1012.8 1012.8 -
30/07:00pm 10.0 0.8 3.3 63 2.9 W 41 56 22 30 1012.7 1012.7 -
30/06:34pm 9.3 2.3 3.9 69 2.4 W 30 52 16 28 1012.4 1012.4 -
30/06:30pm 9.1 2.3 4.9 75 1.9 W 30 46 16 25 1012.5 1012.5 -
30/06:01pm 9.2 1.3 4.2 71 2.2 WSW 35 54 19 29 1012.1 1012.2 -
30/06:00pm 9.2 0.9 4.4 72 2.1 WSW 37 54 20 29 1012.1 1012.2 -
30/05:58pm 9.0 0.7 4.4 73 2.0 WSW 37 57 20 31 1012.1 1012.2 -
30/05:44pm 8.6 0.5 5.4 80 1.4 W 37 63 20 34 1012.0 1012.1 -
30/05:30pm 10.6 2.1 3.4 61 3.2 W 37 56 20 30 1011.1 1011.2 -
30/05:08pm 11.4 3.6 4.8 64 3.0 W 35 54 19 29 1011.0 1011.1 -
30/05:00pm 11.1 2.6 5.0 66 2.8 W 39 56 21 30 1010.8 1010.9 -
30/04:30pm 11.3 1.3 4.3 62 3.2 W 46 67 25 36 1010.2 1010.3 -
30/04:00pm 11.8 2.3 4.1 59 3.5 W 43 65 23 35 1009.6 1009.7 -
30/03:30pm 11.7 1.1 4.9 63 3.1 W 50 72 27 39 1009.0 1009.1 -
30/03:17pm 11.8 2.3 4.8 62 3.2 WSW 44 65 24 35 1008.7 1008.8 -
30/03:00pm 12.0 2.6 5.2 63 3.2 W 44 61 24 33 1008.2 1008.3 -
30/02:58pm 12.2 2.9 4.9 61 3.4 W 43 61 23 33 1008.2 1008.3 -
30/02:30pm 12.4 4.4 7.3 71 2.5 WSW 39 54 21 29 1007.7 1007.8 10.2
30/02:08pm 12.4 4.7 7.3 71 2.5 WSW 37 56 20 30 1007.5 1007.6 10.2
30/02:00pm 12.9 4.1 7.4 69 2.7 W 43 56 23 30 1007.4 1007.5 10.2
30/01:32pm 11.5 2.6 7.0 74 2.2 W 43 63 23 34 1006.7 1006.7 10.2
30/01:30pm 11.5 3.6 7.8 78 1.8 W 39 54 21 29 1006.6 1006.6 10.2
30/01:12pm 11.2 4.2 8.6 84 1.3 W 35 54 19 29 1006.5 1006.5 10.2
30/01:06pm 10.5 3.5 8.4 87 1.0 W 35 46 19 25 1006.6 1006.6 10.2
30/01:02pm 9.9 2.4 8.0 88 0.9 W 37 56 20 30 1006.6 1006.6 10.2
30/01:00pm 9.9 2.1 8.2 89 0.8 W 39 56 21 30 1006.7 1006.7 10.2
30/12:30pm 9.8 1.4 8.9 94 0.4 WSW 43 69 23 37 1005.8 1005.8 9.6
30/12:25pm 9.9 0.2 9.0 94 0.4 WSW 50 69 27 37 1005.3 1005.3 9.6
30/12:24pm 10.1 1.2 9.2 94 0.4 WSW 46 61 25 33 1005.3 1005.3 9.6
30/12:02pm 11.5 3.0 9.4 87 1.1 W 44 78 24 42 1005.0 1005.0 8.4
30/12:00pm 13.3 5.8 11.0 86 1.2 WNW 41 63 22 34 1004.4 1004.4 8.0
30/11:52am 13.6 6.7 11.5 87 1.1 WNW 39 65 21 35 1004.3 1004.3 8.0
30/11:40am 12.6 5.7 11.7 94 0.5 WNW 39 57 21 31 1004.5 1004.5 8.0
30/11:30am 12.2 5.2 11.4 95 0.4 WNW 39 56 21 30 1004.5 1004.5 7.8
30/11:05am 12.8 6.5 11.2 90 0.8 WNW 35 70 19 38 1004.5 1004.5 6.4
30/11:00am 13.6 8.1 12.3 92 0.7 WNW 33 46 18 25 1004.3 1004.3 6.4
30/10:57am 13.7 7.8 12.4 92 0.7 NW 35 48 19 26 1004.2 1004.2 6.4
30/10:56am 13.9 8.1 12.6 92 0.7 NW 35 48 19 26 1004.2 1004.2 6.4
30/10:30am 12.2 6.6 11.4 95 0.4 WNW 32 48 17 26 1004.5 1004.5 6.2
30/10:01am 12.6 5.4 10.7 88 1.0 WNW 39 57 21 31 1005.0 1005.0 4.0
30/10:00am 12.7 5.9 10.8 88 1.0 WNW 37 52 20 28 1004.9 1004.9 4.0
30/09:54am 13.4 8.7 12.1 92 0.7 WNW 28 46 15 25 1004.9 1004.9 3.8
30/09:48am 13.5 8.7 11.7 89 1.0 W 28 35 15 19 1005.1 1005.1 2.8
30/09:31am 14.2 6.9 11.4 83 1.5 NW 41 61 22 33 1004.6 1004.6 0.0
30/09:30am 14.3 6.5 11.3 82 1.6 NW 43 61 23 33 1004.6 1004.6 0.0
30/09:04am 16.5 8.7 11.0 70 3.0 NW 43 65 23 35 1004.5 1004.5 0.0
30/09:00am 16.8 9.1 11.5 71 2.9 NW 43 59 23 32 1004.5 1004.5 0.0
30/08:35am 15.5 8.0 10.7 73 2.6 NW 41 59 22 32 1004.8 1004.8 0.0
30/08:30am 15.2 7.0 10.4 73 2.5 NW 44 59 24 32 1004.9 1004.9 0.0
30/08:03am 15.2 9.0 10.2 72 2.6 NW 33 57 18 31 1004.9 1004.9 0.0
30/08:00am 15.1 9.0 10.3 73 2.5 NW 33 50 18 27 1005.0 1005.0 0.0
30/07:34am 14.5 9.4 10.5 77 2.1 NW 28 50 15 27 1005.1 1005.1 0.0
30/07:30am 14.4 9.2 10.4 77 2.1 NW 28 43 15 23 1005.2 1005.2 0.0
30/07:00am 13.7 9.7 10.3 80 1.8 NW 22 35 12 19 1005.7 1005.7 0.0
30/06:30am 13.1 9.1 10.3 83 1.5 NNW 22 33 12 18 1005.8 1005.8 0.0
30/06:00am 12.7 8.6 10.2 85 1.3 NNW 22 33 12 18 1005.9 1005.9 0.0
30/05:30am 12.8 8.4 10.3 85 1.3 NNW 24 33 13 18 1005.9 1005.9 0.0
30/05:00am 12.5 7.4 10.6 88 1.0 NNW 28 41 15 22 1006.2 1006.2 0.0
30/04:30am 12.3 7.5 10.4 88 1.0 NNW 26 37 14 20 1006.3 1006.3 0.0
30/04:00am 12.1 6.9 10.2 88 1.0 NNW 28 37 15 20 1006.7 1006.7 0.0
30/03:30am 11.9 7.4 10.0 88 1.0 NNW 24 33 13 18 1007.1 1007.2 0.0
30/03:00am 11.8 7.3 9.9 88 1.0 NNW 24 37 13 20 1007.6 1007.7 0.0
30/02:30am 11.6 7.4 9.7 88 1.0 NNW 22 33 12 18 1008.0 1008.1 0.0
30/02:00am 11.0 7.1 9.4 90 0.8 NNW 20 32 11 17 1008.3 1008.4 0.0
30/01:30am 11.0 7.1 9.3 89 0.9 NNW 20 32 11 17 1008.8 1008.9 0.0
30/01:00am 11.0 7.1 9.3 89 0.9 NNW 20 28 11 15 1009.2 1009.3 0.0
30/12:30am 10.9 7.4 8.8 87 1.0 NNW 17 26 9 14 1009.5 1009.6 0.0
30/12:00am 10.7 7.6 8.8 88 0.9 N 15 19 8 10 1009.9 1010.0 0.0
 
Date/Time
EST
Temp
°C
App
Temp
°C
Dew
Point
Rel
Hum
%
Delta-T
°C
Wind Press
QNH
hPa
Press
MSL
hPa
Rain
since 9 am
mm
Dir
 
Spd
km/h
Gust
km/h
Spd
kts
Gust
kts
29/11:30pm 12.3 9.0 9.7 84 1.3 NW 17 28 9 15 1010.2 1010.3 0.0
29/11:00pm 11.7 7.9 9.1 84 1.3 NW 19 26 10 14 1010.6 1010.7 0.0
29/10:30pm 11.5 8.1 9.2 86 1.2 NW 17 20 9 11 1011.0 1011.1 0.0
29/10:00pm 12.0 8.1 9.6 85 1.2 NW 20 26 11 14 1011.1 1011.2 0.0
29/09:30pm 12.3 8.4 9.5 83 1.4 NW 20 28 11 15 1011.4 1011.5 0.0
29/09:00pm 12.7 8.9 9.9 83 1.4 NW 20 30 11 16 1011.5 1011.6 0.0
29/08:30pm 13.2 9.0 9.8 80 1.8 WNW 22 35 12 19 1011.5 1011.6 0.0
29/08:00pm 13.0 8.4 9.6 80 1.7 WNW 24 33 13 18 1011.5 1011.6 0.0
29/07:30pm 13.2 9.0 9.8 80 1.8 WNW 22 30 12 16 1011.1 1011.2 0.0
29/07:00pm 13.3 8.7 9.5 78 1.9 WNW 24 35 13 19 1010.8 1010.9 0.0
29/06:30pm 13.7 7.9 9.4 75 2.2 WNW 30 39 16 21 1010.3 1010.4 0.0
29/06:00pm 14.1 8.4 9.7 75 2.3 WNW 30 46 16 25 1010.1 1010.2 0.0
29/05:30pm 14.5 8.4 10.3 76 2.2 WNW 33 44 18 24 1009.9 1010.0 0.0
29/05:06pm 14.9 8.2 9.5 70 2.8 WNW 35 54 19 29 1009.7 1009.8 0.0
29/05:00pm 15.0 8.4 10.0 72 2.6 WNW 35 46 19 25 1009.7 1009.8 0.0
29/04:30pm 15.1 7.8 10.1 72 2.6 WNW 39 54 21 29 1009.8 1009.9 0.0
29/04:00pm 15.8 9.2 10.1 69 3.0 WNW 35 46 19 25 1010.0 1010.1 0.0
29/03:30pm 16.2 9.7 10.3 68 3.1 W 35 44 19 24 1010.2 1010.3 0.0
29/03:00pm 16.0 9.7 11.0 72 2.7 W 35 50 19 27 1010.5 1010.6 0.0
29/02:30pm 16.6 10.8 11.5 72 2.8 W 33 44 18 24 1010.8 1010.9 0.0
29/02:00pm 16.4 11.3 10.7 69 3.1 WNW 28 39 15 21 1010.9 1011.0 0.0
29/01:30pm 16.5 11.0 10.4 67 3.2 W 30 39 16 21 1011.1 1011.2 0.0
29/01:00pm 16.6 11.0 10.2 66 3.4 W 30 39 16 21 1011.3 1011.4 0.0
29/12:30pm 16.2 10.0 9.4 64 3.5 W 32 43 17 23 1011.4 1011.5 0.0
29/12:00pm 16.6 12.5 11.3 71 2.9 WNW 24 35 13 19 1011.5 1011.6 0.0
29/11:30am 15.4 9.9 9.1 66 3.2 WNW 28 41 15 22 1011.7 1011.8 0.0
29/11:00am 15.0 8.7 9.1 68 3.0 WNW 32 44 17 24 1011.9 1012.0 0.0
29/10:30am 15.1 9.1 8.6 65 3.3 WNW 30 48 16 26 1012.0 1012.1 0.0
29/10:21am 15.4 9.4 8.6 64 3.5 WNW 30 48 16 26 1012.1 1012.2 0.0
29/10:00am 14.9 8.8 8.4 65 3.3 WNW 30 39 16 21 1012.2 1012.3 0.0
29/09:30am 14.2 7.3 7.3 63 3.4 WNW 33 44 18 24 1012.5 1012.5 0.0
29/09:00am 13.8 7.9 7.6 66 3.1 WNW 28 43 15 23 1012.4 1012.4 0.0
29/08:30am 13.9 9.2 7.9 67 3.0 WNW 22 39 12 21 1012.0 1012.1 0.0

Other Formats:

Comma delimited format used in spreadsheet applications
http://www.bom.gov.au/fwo/IDV60801/IDV60801.94828.axf

JavaScript Object Notation format (JSON) in row-major order
http://www.bom.gov.au/fwo/IDV60801/IDV60801.94828.json